Time;durP1;ratioP1;P1;durP2;ratioP2;P2;SDS_P1;SDS_P2;PMS_P1;PMS_P2;Temp;Humidity;BMP_temperature;BMP_pressure;BME280_temperature;BME280_humidity;BME280_pressure;Samples;Min_cycle;Max_cycle;Signal;HPM_P1;HPM_P2
2021/11/11 00:00:30;;;;;;;71.10;44.20;;;9.10;99.90;;;;;;5023363;28;20239;-64
2021/11/11 00:03:01;;;;;;;69.93;45.20;;;9.10;99.90;;;;;;5019860;28;20260;-64
2021/11/11 00:05:33;;;;;;;65.00;44.43;;;9.10;99.90;;;;;;5023533;28;20263;-64
2021/11/11 00:08:02;;;;;;;73.77;46.17;;;9.10;99.90;;;;;;5022209;28;20237;-64
2021/11/11 00:10:31;;;;;;;73.70;45.50;;;9.10;99.90;;;;;;5019365;28;20307;-64
2021/11/11 00:13:00;;;;;;;71.63;43.87;;;9.20;99.90;;;;;;5016208;28;20688;-64
2021/11/11 00:15:31;;;;;;;74.13;47.50;;;9.10;99.90;;;;;;5024872;28;20700;-64
2021/11/11 00:18:00;;;;;;;82.50;47.30;;;9.10;99.90;;;;;;5019827;28;20283;-64
2021/11/11 00:20:31;;;;;;;83.03;46.83;;;9.10;99.90;;;;;;5021221;28;20233;-64
2021/11/11 00:23:00;;;;;;;82.03;47.60;;;9.10;99.90;;;;;;5026942;28;20339;-64
2021/11/11 00:25:30;;;;;;;81.50;46.67;;;9.10;99.90;;;;;;5024584;28;20229;-64
2021/11/11 00:27:59;;;;;;;70.40;46.03;;;9.10;99.90;;;;;;5016557;28;20233;-64
2021/11/11 00:30:28;;;;;;;69.43;44.63;;;9.10;99.90;;;;;;5022897;28;20616;-64
2021/11/11 00:32:57;;;;;;;78.33;46.70;;;9.20;99.90;;;;;;5026403;28;20251;-64
2021/11/11 00:35:28;;;;;;;72.67;44.73;;;9.10;99.90;;;;;;5025842;28;20228;-64
2021/11/11 00:38:01;;;;;;;71.77;44.67;;;9.10;99.90;;;;;;5018544;28;20704;-64
2021/11/11 00:40:31;;;;;;;74.87;44.23;;;9.10;99.90;;;;;;4998695;28;20237;-64
2021/11/11 00:43:00;;;;;;;74.83;43.13;;;9.20;99.90;;;;;;4999833;28;20755;-64
2021/11/11 00:45:29;;;;;;;77.90;47.10;;;9.10;99.90;;;;;;4995963;28;20239;-64
2021/11/11 00:47:57;;;;;;;80.90;45.53;;;9.10;99.90;;;;;;4997491;28;20241;-64
2021/11/11 00:50:30;;;;;;;78.13;47.43;;;9.20;99.90;;;;;;5006397;28;20597;-64
2021/11/11 00:52:58;;;;;;;75.10;44.57;;;9.20;99.90;;;;;;4997234;28;20229;-64
2021/11/11 00:55:27;;;;;;;79.47;47.83;;;9.20;99.90;;;;;;5003125;28;20241;-64
2021/11/11 00:58:01;;;;;;;76.83;44.63;;;9.20;99.90;;;;;;5005369;28;20228;-64
2021/11/11 01:00:31;;;;;;;75.47;46.13;;;9.30;99.90;;;;;;4998121;28;20268;-64
2021/11/11 01:02:59;;;;;;;75.53;44.57;;;9.20;99.90;;;;;;4991439;28;20699;-64
2021/11/11 01:05:29;;;;;;;80.63;45.10;;;9.20;99.90;;;;;;5002998;28;20612;-64
2021/11/11 01:07:58;;;;;;;78.37;45.57;;;9.20;99.90;;;;;;4999106;28;20237;-64
2021/11/11 01:10:27;;;;;;;77.43;47.40;;;9.10;99.90;;;;;;5001946;28;20240;-64
2021/11/11 01:12:57;;;;;;;79.80;47.33;;;9.20;99.90;;;;;;4999223;28;20241;-64
2021/11/11 01:15:28;;;;;;;75.57;45.53;;;9.20;99.90;;;;;;5002319;28;20562;-64
2021/11/11 01:17:57;;;;;;;80.63;45.93;;;9.20;99.90;;;;;;5000196;28;20241;-64
2021/11/11 01:20:25;;;;;;;76.20;45.10;;;9.20;99.90;;;;;;5007903;28;20290;-64
2021/11/11 01:22:56;;;;;;;84.03;46.83;;;9.20;99.90;;;;;;5007432;28;20283;-64
2021/11/11 01:25:28;;;;;;;76.30;47.77;;;9.20;99.90;;;;;;5008810;28;20236;-64
2021/11/11 01:27:57;;;;;;;78.90;45.80;;;9.20;99.90;;;;;;5002757;28;20482;-64
2021/11/11 01:30:31;;;;;;;86.07;45.43;;;9.20;99.90;;;;;;5021597;28;20239;-64
2021/11/11 01:33:15;;;;;;;95.80;51.73;;;9.20;99.90;;;;;;5001298;28;20295;-64
2021/11/11 01:35:43;;;;;;;86.70;49.47;;;9.10;99.90;;;;;;5010299;28;20717;-64
2021/11/11 01:38:18;;;;;;;83.93;48.20;;;9.20;99.90;;;;;;5017538;28;20320;-64
2021/11/11 01:40:48;;;;;;;87.57;48.27;;;9.20;99.90;;;;;;5019593;28;20320;-64
2021/11/11 01:43:17;;;;;;;85.27;47.40;;;9.20;99.90;;;;;;5002405;28;20241;-64
2021/11/11 01:45:46;;;;;;;86.33;48.67;;;9.20;99.90;;;;;;5020910;28;20719;-64
2021/11/11 01:48:21;;;;;;;78.70;47.10;;;9.20;99.90;;;;;;5022755;28;20697;-64
2021/11/11 01:50:49;;;;;;;82.03;47.87;;;9.20;99.90;;;;;;5008961;28;20264;-64
2021/11/11 01:53:19;;;;;;;74.63;47.03;;;9.30;99.90;;;;;;5017128;28;20982;-64
2021/11/11 01:55:52;;;;;;;78.97;47.13;;;9.30;99.90;;;;;;5024432;28;20764;-64
2021/11/11 01:58:23;;;;;;;71.87;44.73;;;9.20;99.90;;;;;;4997007;28;20761;-64
2021/11/11 02:00:55;;;;;;;79.63;48.33;;;9.20;99.90;;;;;;4998645;28;20233;-64
2021/11/11 02:03:35;;;;;;;77.47;47.77;;;9.20;99.90;;;;;;5000815;28;20489;-64
2021/11/11 02:06:21;;;;;;;71.73;46.20;;;9.40;99.90;;;;;;5006475;28;20233;-64
2021/11/11 02:09:00;;;;;;;70.30;44.80;;;9.30;99.90;;;;;;5008566;28;20244;-64
2021/11/11 02:11:52;;;;;;;75.23;45.33;;;9.40;99.90;;;;;;4990488;28;20649;-64
2021/11/11 02:14:21;;;;;;;81.00;45.93;;;9.30;99.90;;;;;;4999330;28;20245;-64
2021/11/11 02:16:50;;;;;;;85.47;46.80;;;9.30;99.90;;;;;;4999886;28;20467;-64
2021/11/11 02:19:31;;;;;;;83.67;46.80;;;9.40;99.90;;;;;;5002119;28;20230;-64
2021/11/11 02:22:04;;;;;;;76.87;47.73;;;9.30;99.90;;;;;;4998414;28;20237;-64
2021/11/11 02:24:38;;;;;;;80.57;45.77;;;9.30;99.90;;;;;;5004690;28;20270;-64
2021/11/11 02:27:11;;;;;;;85.07;50.83;;;9.40;99.90;;;;;;5004868;28;20240;-64
2021/11/11 02:29:40;;;;;;;73.77;47.03;;;9.30;99.90;;;;;;5002945;28;20260;-64
2021/11/11 02:32:09;;;;;;;78.40;46.90;;;9.30;99.90;;;;;;4999092;28;20241;-64
2021/11/11 02:34:43;;;;;;;72.73;43.93;;;9.40;99.90;;;;;;5003708;28;20308;-64
2021/11/11 02:37:14;;;;;;;77.30;48.97;;;9.50;99.90;;;;;;4998642;28;20268;-64
2021/11/11 02:40:09;;;;;;;74.03;45.53;;;9.50;99.90;;;;;;5003649;28;20686;-64
2021/11/11 02:42:43;;;;;;;67.43;43.77;;;9.50;99.90;;;;;;5011896;28;20233;-64
2021/11/11 02:45:23;;;;;;;73.90;46.90;;;9.50;99.90;;;;;;5020709;28;20241;-64
2021/11/11 02:47:55;;;;;;;79.30;49.43;;;9.50;99.90;;;;;;5022772;28;20701;-64
2021/11/11 02:50:28;;;;;;;78.97;49.80;;;9.40;99.90;;;;;;4998471;28;20567;-64
2021/11/11 02:53:00;;;;;;;73.83;47.00;;;9.40;99.90;;;;;;5005911;28;20237;-64
2021/11/11 02:55:30;;;;;;;65.00;43.73;;;9.30;99.90;;;;;;5012591;28;20240;-64
2021/11/11 02:58:00;;;;;;;75.53;47.43;;;9.40;99.90;;;;;;5022390;28;20229;-64
2021/11/11 03:00:31;;;;;;;79.10;47.43;;;9.30;99.90;;;;;;5000231;28;20248;-64
2021/11/11 03:03:00;;;;;;;81.03;53.27;;;9.40;99.90;;;;;;5006202;28;20229;-64
2021/11/11 03:05:36;;;;;;;78.83;49.43;;;9.30;99.90;;;;;;5017502;28;20683;-64
2021/11/11 03:08:11;;;;;;;74.43;47.67;;;9.30;99.90;;;;;;5012103;28;20254;-64
2021/11/11 03:10:47;;;;;;;75.07;49.87;;;9.30;99.90;;;;;;5005172;28;20294;-64
2021/11/11 03:13:19;;;;;;;73.53;44.70;;;9.30;99.90;;;;;;5002102;28;20344;-64
2021/11/11 03:15:57;;;;;;;84.00;52.97;;;9.40;99.90;;;;;;5007062;28;20787;-64
2021/11/11 03:18:25;;;;;;;78.83;51.37;;;9.40;99.90;;;;;;4997525;28;20288;-64
2021/11/11 03:20:54;;;;;;;75.60;49.93;;;9.30;99.90;;;;;;5004435;28;20697;-64
2021/11/11 03:23:24;;;;;;;74.70;48.13;;;9.30;99.90;;;;;;4998066;28;20268;-64
2021/11/11 03:25:53;;;;;;;71.30;47.33;;;9.40;99.90;;;;;;5003751;28;20237;-64
2021/11/11 03:28:27;;;;;;;73.73;50.57;;;9.40;99.90;;;;;;5014220;28;20625;-64
2021/11/11 03:30:56;;;;;;;70.90;48.57;;;9.40;99.90;;;;;;5005968;28;20316;-64
2021/11/11 03:33:25;;;;;;;66.43;43.80;;;9.30;99.90;;;;;;5003453;28;20242;-64
2021/11/11 03:35:54;;;;;;;77.50;51.30;;;9.30;99.90;;;;;;5000615;28;20271;-64
2021/11/11 03:38:24;;;;;;;70.57;48.20;;;9.30;99.90;;;;;;5019617;28;20590;-64
2021/11/11 03:40:53;;;;;;;69.33;48.33;;;9.30;99.90;;;;;;5021418;28;20248;-64
2021/11/11 03:43:30;;;;;;;69.70;44.53;;;9.20;99.90;;;;;;5023091;28;20240;-64
2021/11/11 03:46:11;;;;;;;68.00;47.50;;;9.30;99.90;;;;;;5015557;28;20229;-64
2021/11/11 03:48:41;;;;;;;68.10;45.47;;;9.20;99.90;;;;;;5026716;28;20310;-64
2021/11/11 03:51:12;;;;;;;71.63;48.00;;;9.30;99.90;;;;;;5024613;28;20359;-64
2021/11/11 03:53:44;;;;;;;67.83;47.10;;;9.30;99.90;;;;;;5019339;28;20232;-64
2021/11/11 03:56:13;;;;;;;67.87;46.87;;;9.30;99.90;;;;;;5013099;28;20227;-64
2021/11/11 03:58:44;;;;;;;65.13;45.53;;;9.20;99.90;;;;;;5022116;28;20236;-63
2021/11/11 04:01:13;;;;;;;67.30;46.53;;;9.30;99.90;;;;;;5015268;28;20998;-63
2021/11/11 04:03:43;;;;;;;68.77;46.40;;;9.30;99.90;;;;;;5032491;28;20637;-63
2021/11/11 04:06:12;;;;;;;64.50;45.10;;;9.30;99.90;;;;;;5012871;28;20241;-62
2021/11/11 04:08:42;;;;;;;61.27;44.70;;;9.30;99.90;;;;;;5025149;28;20240;-63
2021/11/11 04:11:10;;;;;;;61.73;45.13;;;9.30;99.90;;;;;;5008913;28;20248;-63
2021/11/11 04:13:38;;;;;;;62.93;43.13;;;9.30;99.90;;;;;;5003714;28;20241;-63
2021/11/11 04:16:07;;;;;;;60.17;44.47;;;9.30;99.90;;;;;;5013851;28;20242;-63
2021/11/11 04:18:39;;;;;;;60.97;44.47;;;9.30;99.90;;;;;;5001716;28;20237;-63
2021/11/11 04:21:08;;;;;;;61.27;43.10;;;9.20;99.90;;;;;;5016821;28;20237;-62
2021/11/11 04:23:38;;;;;;;58.27;43.03;;;9.30;99.90;;;;;;5009600;28;20230;-62
2021/11/11 04:26:11;;;;;;;56.27;42.07;;;9.30;99.90;;;;;;5002413;28;20241;-63
2021/11/11 04:28:46;;;;;;;59.73;44.27;;;9.30;99.90;;;;;;5012563;28;20239;-62
2021/11/11 04:31:20;;;;;;;57.40;42.70;;;9.20;99.90;;;;;;5011848;28;20246;-63
2021/11/11 04:33:54;;;;;;;58.20;43.13;;;9.40;99.90;;;;;;5004376;28;20232;-62
2021/11/11 04:39:20;;;;;;;55.63;39.50;;;9.30;99.90;;;;;;4966434;28;20237;-63
2021/11/11 04:44:45;;;;;;;56.40;42.10;;;9.30;99.90;;;;;;4990510;28;20317;-63
2021/11/11 04:47:28;;;;;;;58.77;43.63;;;9.40;99.90;;;;;;5003440;28;20278;-63
2021/11/11 04:52:53;;;;;;;53.73;40.13;;;9.40;99.90;;;;;;4992149;28;20287;-63
2021/11/11 05:03:43;;;;;;;51.73;38.73;;;9.30;99.90;;;;;;5000511;28;20296;-63
2021/11/11 05:06:13;;;;;;;52.60;38.40;;;9.40;99.90;;;;;;5002101;28;20234;-62
2021/11/11 05:08:43;;;;;;;55.43;41.87;;;9.40;99.90;;;;;;4997047;28;20713;-63
2021/11/11 05:11:12;;;;;;;52.63;37.97;;;9.30;99.90;;;;;;4992091;28;20264;-63
2021/11/11 05:13:42;;;;;;;58.07;40.70;;;9.40;99.90;;;;;;5003336;28;20249;-63
2021/11/11 05:16:15;;;;;;;53.93;39.33;;;9.40;99.90;;;;;;5003359;28;20235;-63
2021/11/11 05:18:43;;;;;;;58.73;42.03;;;9.40;99.90;;;;;;5000829;28;20709;-63
2021/11/11 05:21:14;;;;;;;53.00;38.47;;;9.30;99.90;;;;;;5008945;28;20230;-63
2021/11/11 05:23:42;;;;;;;53.43;37.33;;;9.30;99.90;;;;;;5002142;28;20695;-63
2021/11/11 05:26:12;;;;;;;63.23;41.20;;;9.30;99.90;;;;;;5001472;28;20459;-63
2021/11/11 05:28:43;;;;;;;60.00;41.13;;;9.40;99.90;;;;;;5016615;28;20237;-62
2021/11/11 05:31:16;;;;;;;56.63;39.60;;;9.30;99.90;;;;;;5012902;28;20249;-63
2021/11/11 05:33:44;;;;;;;56.13;39.20;;;9.30;99.90;;;;;;5016184;28;20249;-63
2021/11/11 05:36:13;;;;;;;52.80;38.20;;;9.30;99.90;;;;;;5010890;28;20264;-63
2021/11/11 05:38:42;;;;;;;56.23;39.43;;;9.30;99.90;;;;;;5005195;28;20233;-63
2021/11/11 05:41:11;;;;;;;52.07;38.93;;;9.30;99.90;;;;;;5000649;28;20235;-63
2021/11/11 05:43:41;;;;;;;54.80;36.97;;;9.40;99.90;;;;;;4994295;28;20260;-63
2021/11/11 05:46:11;;;;;;;60.77;40.43;;;9.40;99.90;;;;;;4993021;28;20237;-63
2021/11/11 05:48:45;;;;;;;58.63;40.47;;;9.40;99.90;;;;;;5015284;28;20336;-63
2021/11/11 05:51:13;;;;;;;56.17;39.33;;;9.40;99.90;;;;;;5011218;28;20248;-62
2021/11/11 05:53:41;;;;;;;53.17;38.70;;;9.30;99.90;;;;;;4993828;28;20229;-63
2021/11/11 05:56:10;;;;;;;56.63;37.10;;;9.30;99.90;;;;;;5015833;28;20233;-62
2021/11/11 05:58:38;;;;;;;63.27;39.77;;;9.40;99.90;;;;;;5015796;28;20229;-63
2021/11/11 06:01:06;;;;;;;59.60;40.67;;;9.30;99.90;;;;;;5020084;28;20240;-63
2021/11/11 06:03:46;;;;;;;60.80;41.00;;;9.30;99.90;;;;;;5012883;28;20611;-62
2021/11/11 06:06:15;;;;;;;61.00;39.90;;;9.40;99.90;;;;;;5020871;28;20240;-62
2021/11/11 06:08:43;;;;;;;57.90;39.87;;;9.40;99.90;;;;;;5000993;28;20256;-63
2021/11/11 06:11:13;;;;;;;61.33;40.13;;;9.40;99.90;;;;;;5013321;28;20705;-63
2021/11/11 06:13:41;;;;;;;61.60;36.87;;;9.30;99.90;;;;;;5000766;28;20612;-63
2021/11/11 06:16:10;;;;;;;65.60;40.67;;;9.40;99.90;;;;;;5001437;28;20316;-63
2021/11/11 06:18:39;;;;;;;72.03;43.20;;;9.40;99.90;;;;;;4997372;28;20896;-63
2021/11/11 06:21:11;;;;;;;73.33;42.50;;;9.40;99.90;;;;;;5005553;28;20298;-63
2021/11/11 06:23:39;;;;;;;74.77;42.83;;;9.40;99.90;;;;;;5005802;28;20237;-63
2021/11/11 06:26:08;;;;;;;73.33;42.80;;;9.40;99.90;;;;;;5010196;28;20241;-63
2021/11/11 06:28:53;;;;;;;71.53;41.73;;;9.40;99.90;;;;;;4999566;28;20697;-63
2021/11/11 06:31:22;;;;;;;76.93;43.90;;;9.30;99.90;;;;;;5001353;28;20245;-63
2021/11/11 06:33:50;;;;;;;76.40;44.23;;;9.30;99.90;;;;;;5020954;28;20233;-63
2021/11/11 06:36:20;;;;;;;71.70;43.97;;;9.40;99.90;;;;;;5005710;28;20260;-62
2021/11/11 06:38:48;;;;;;;69.13;43.63;;;9.40;99.90;;;;;;5003641;28;20350;-63
2021/11/11 06:41:18;;;;;;;69.47;43.73;;;9.40;99.90;;;;;;5004420;28;20257;-63
2021/11/11 06:43:47;;;;;;;69.13;40.00;;;9.40;99.90;;;;;;4998583;28;20272;-63
2021/11/11 06:46:16;;;;;;;71.57;42.07;;;9.40;99.90;;;;;;5007522;28;20320;-62
2021/11/11 06:48:44;;;;;;;67.00;40.43;;;9.40;99.90;;;;;;5005731;28;20241;-63
2021/11/11 06:51:12;;;;;;;77.07;44.70;;;9.40;99.90;;;;;;5002029;28;20239;-62
2021/11/11 06:53:42;;;;;;;77.40;45.57;;;9.30;99.90;;;;;;5006438;28;20234;-62
2021/11/11 06:56:10;;;;;;;70.83;43.70;;;9.30;99.90;;;;;;4999092;28;20316;-63
2021/11/11 06:58:39;;;;;;;67.87;43.33;;;9.30;99.90;;;;;;4995791;28;20237;-63
2021/11/11 07:01:07;;;;;;;71.43;43.33;;;9.30;99.90;;;;;;5014867;28;20238;-63
2021/11/11 07:03:36;;;;;;;71.70;45.00;;;9.40;99.90;;;;;;5018823;28;20583;-63
2021/11/11 07:06:05;;;;;;;72.17;43.33;;;9.40;99.90;;;;;;5013520;28;20853;-63
2021/11/11 07:08:33;;;;;;;80.23;46.50;;;9.40;99.90;;;;;;5003465;28;20237;-63
2021/11/11 07:11:04;;;;;;;74.63;44.10;;;9.40;99.90;;;;;;5006809;28;20328;-63
2021/11/11 07:13:32;;;;;;;78.63;47.20;;;9.40;99.90;;;;;;4994800;28;20678;-63
2021/11/11 07:16:02;;;;;;;70.87;45.47;;;9.40;99.90;;;;;;5002230;28;20646;-63
2021/11/11 07:18:31;;;;;;;74.80;45.60;;;9.40;99.90;;;;;;5004758;28;20237;-63
2021/11/11 07:21:00;;;;;;;76.67;44.97;;;9.40;99.90;;;;;;5003461;28;20237;-63
2021/11/11 07:23:29;;;;;;;77.50;43.40;;;9.40;99.90;;;;;;4993985;28;20707;-63
2021/11/11 07:25:58;;;;;;;79.67;45.97;;;9.40;99.90;;;;;;5008629;28;20634;-63
2021/11/11 07:28:27;;;;;;;78.07;45.47;;;9.50;99.90;;;;;;4999540;28;20771;-63
2021/11/11 07:30:56;;;;;;;79.23;47.60;;;9.50;99.90;;;;;;5000818;28;20325;-63
2021/11/11 07:33:24;;;;;;;80.00;47.60;;;9.50;99.90;;;;;;5006087;28;20243;-63
2021/11/11 07:35:53;;;;;;;77.80;45.87;;;9.50;99.90;;;;;;5003780;28;20600;-63
2021/11/11 07:38:22;;;;;;;79.03;46.37;;;9.50;99.90;;;;;;5003938;28;20311;-63
2021/11/11 07:40:50;;;;;;;76.50;47.07;;;9.50;99.90;;;;;;5001562;28;20238;-63
2021/11/11 07:43:18;;;;;;;82.60;47.87;;;9.50;99.90;;;;;;5004703;28;20288;-63
2021/11/11 07:45:53;;;;;;;85.43;47.50;;;9.50;99.90;;;;;;5006244;28;20267;-63
2021/11/11 07:48:22;;;;;;;81.33;49.50;;;9.50;99.90;;;;;;4997731;28;20260;-63
2021/11/11 07:50:51;;;;;;;81.77;47.10;;;9.50;99.90;;;;;;5003422;28;20324;-63
2021/11/11 07:53:20;;;;;;;85.20;49.13;;;9.50;99.90;;;;;;5001792;28;20730;-63
2021/11/11 07:55:48;;;;;;;89.10;49.23;;;9.50;99.90;;;;;;5004185;28;20287;-63
2021/11/11 07:58:17;;;;;;;89.90;47.83;;;9.50;99.90;;;;;;5000898;28;20295;-63
2021/11/11 08:00:45;;;;;;;95.50;49.23;;;9.50;99.90;;;;;;4997755;28;20242;-63
2021/11/11 08:03:15;;;;;;;93.70;51.70;;;9.50;99.90;;;;;;5001198;28;20276;-63
2021/11/11 08:05:43;;;;;;;93.53;51.13;;;9.50;99.90;;;;;;5007703;28;20233;-63
2021/11/11 08:08:12;;;;;;;89.20;51.37;;;9.50;99.90;;;;;;5002684;28;20289;-63
2021/11/11 08:10:40;;;;;;;96.93;53.70;;;9.50;99.90;;;;;;4998622;28;20221;-63
2021/11/11 08:13:09;;;;;;;95.43;51.27;;;9.60;99.90;;;;;;4994978;28;20265;-63
2021/11/11 08:15:37;;;;;;;97.70;50.93;;;9.50;99.90;;;;;;4993598;28;20243;-63
2021/11/11 08:18:05;;;;;;;93.97;52.10;;;9.60;99.90;;;;;;4998313;28;20244;-63
2021/11/11 08:20:34;;;;;;;86.77;50.83;;;9.60;99.90;;;;;;4994869;28;20576;-63
2021/11/11 08:23:03;;;;;;;90.67;52.43;;;9.60;99.90;;;;;;5004507;28;20241;-63
2021/11/11 08:25:31;;;;;;;99.20;51.13;;;9.60;99.90;;;;;;4998292;28;20321;-63
2021/11/11 08:28:00;;;;;;;100.03;53.13;;;9.60;99.90;;;;;;4992626;28;20352;-63
2021/11/11 08:30:28;;;;;;;102.43;53.37;;;9.60;99.90;;;;;;5000777;28;20236;-63
2021/11/11 08:32:57;;;;;;;93.27;52.03;;;9.60;99.90;;;;;;4999846;28;20261;-63
2021/11/11 08:35:27;;;;;;;92.80;51.23;;;9.60;99.90;;;;;;5001106;28;20721;-63
2021/11/11 08:37:57;;;;;;;95.20;53.07;;;9.60;99.90;;;;;;4997662;28;20272;-63
2021/11/11 08:40:25;;;;;;;90.13;51.10;;;9.60;99.90;;;;;;4998620;28;20233;-63
2021/11/11 08:42:57;;;;;;;96.43;52.67;;;9.60;99.90;;;;;;4997872;28;20727;-63
2021/11/11 08:45:30;;;;;;;98.27;52.63;;;9.60;99.90;;;;;;5014394;28;20245;-63
2021/11/11 08:48:01;;;;;;;90.27;51.93;;;9.60;99.90;;;;;;5015350;28;20235;-63
2021/11/11 08:50:31;;;;;;;88.50;49.50;;;9.60;99.90;;;;;;5012733;28;20736;-63
2021/11/11 08:53:01;;;;;;;87.77;49.97;;;9.60;99.90;;;;;;5024901;28;20240;-63
2021/11/11 08:55:32;;;;;;;87.50;50.50;;;9.70;99.90;;;;;;5012487;28;20233;-63
2021/11/11 08:58:01;;;;;;;85.67;49.77;;;9.60;99.90;;;;;;5022975;28;20279;-63
2021/11/11 09:00:34;;;;;;;85.57;50.77;;;9.60;99.90;;;;;;5030374;28;20243;-63
2021/11/11 09:03:06;;;;;;;88.80;48.97;;;9.60;99.90;;;;;;5014446;28;20252;-63
2021/11/11 09:05:35;;;;;;;92.93;50.60;;;9.70;99.90;;;;;;5010359;28;20658;-63
2021/11/11 09:08:07;;;;;;;91.07;51.70;;;9.70;99.90;;;;;;5020305;28;20236;-63
2021/11/11 09:10:36;;;;;;;84.63;49.23;;;9.70;99.90;;;;;;5008412;28;20236;-63
2021/11/11 09:13:25;;;;;;;79.43;46.23;;;9.70;99.90;;;;;;5020216;28;20529;-63
2021/11/11 09:15:54;;;;;;;83.27;50.17;;;9.80;99.90;;;;;;5012686;28;20263;-63
2021/11/11 09:18:22;;;;;;;83.90;50.87;;;9.80;99.90;;;;;;5018503;28;20693;-63
2021/11/11 09:21:02;;;;;;;78.50;50.07;;;9.80;99.90;;;;;;5020164;28;20294;-63
2021/11/11 09:23:32;;;;;;;77.73;48.03;;;9.70;99.90;;;;;;5014403;28;20240;-63
2021/11/11 09:26:01;;;;;;;79.43;48.87;;;9.70;99.90;;;;;;5015756;28;20743;-63
2021/11/11 09:28:29;;;;;;;78.50;48.43;;;9.70;99.90;;;;;;5013212;28;20239;-63
2021/11/11 09:30:58;;;;;;;82.73;50.33;;;9.70;99.90;;;;;;5022940;28;20563;-63
2021/11/11 09:33:27;;;;;;;73.13;48.53;;;9.70;99.90;;;;;;5010375;28;20786;-63
2021/11/11 09:35:57;;;;;;;69.03;47.10;;;9.70;99.90;;;;;;5016343;28;20668;-63
2021/11/11 09:38:26;;;;;;;65.57;46.03;;;9.70;99.90;;;;;;5017420;28;20631;-63
2021/11/11 09:40:56;;;;;;;73.10;45.97;;;9.70;99.90;;;;;;5025993;28;20327;-63
2021/11/11 09:43:42;;;;;;;71.83;45.87;;;9.80;99.90;;;;;;5018818;28;20328;-63
2021/11/11 09:46:12;;;;;;;76.53;48.03;;;9.80;99.90;;;;;;5018306;28;20287;-63
2021/11/11 09:48:42;;;;;;;71.23;47.10;;;9.80;99.90;;;;;;5024313;28;20232;-63
2021/11/11 09:51:14;;;;;;;72.67;47.00;;;9.80;99.90;;;;;;5013451;28;20269;-63
2021/11/11 09:53:52;;;;;;;73.87;46.83;;;9.80;99.90;;;;;;5024308;28;20327;-63
2021/11/11 09:59:21;;;;;;;71.83;46.03;;;9.80;99.90;;;;;;5004348;28;20340;-63
2021/11/11 10:01:50;;;;;;;73.80;46.70;;;9.80;99.90;;;;;;5005531;28;20788;-63
2021/11/11 10:04:19;;;;;;;78.43;47.27;;;9.80;99.90;;;;;;4999730;28;20328;-63
2021/11/11 10:06:48;;;;;;;73.43;46.20;;;9.90;99.90;;;;;;5003159;28;20241;-63
2021/11/11 10:09:17;;;;;;;74.13;46.73;;;9.90;99.90;;;;;;4998241;28;20740;-63
2021/11/11 10:11:51;;;;;;;71.90;46.27;;;10.00;99.90;;;;;;5005104;28;20628;-63
2021/11/11 10:14:22;;;;;;;72.30;44.93;;;10.00;99.90;;;;;;5000386;28;20706;-63
2021/11/11 10:16:52;;;;;;;65.67;44.27;;;10.00;99.90;;;;;;4993646;28;20242;-63
2021/11/11 10:19:21;;;;;;;68.40;44.20;;;10.10;99.90;;;;;;5004911;28;20249;-63
2021/11/11 10:21:53;;;;;;;62.83;43.43;;;10.00;99.90;;;;;;4995994;28;20241;-63
2021/11/11 10:24:30;;;;;;;68.23;42.10;;;10.10;99.90;;;;;;4996497;28;20780;-63
2021/11/11 10:27:04;;;;;;;69.33;45.83;;;10.10;99.90;;;;;;4996230;28;20237;-63
2021/11/11 10:29:37;;;;;;;65.23;43.47;;;10.10;99.90;;;;;;5003704;28;20233;-63
2021/11/11 10:32:08;;;;;;;60.40;40.43;;;10.10;99.90;;;;;;4996186;28;20335;-63
2021/11/11 10:34:46;;;;;;;58.07;39.80;;;10.10;99.90;;;;;;5002842;28;20241;-63
2021/11/11 10:37:15;;;;;;;60.50;40.93;;;10.20;99.90;;;;;;5004398;28;20245;-63
2021/11/11 10:39:51;;;;;;;62.40;40.47;;;10.20;99.90;;;;;;4998540;28;20260;-63
2021/11/11 10:42:24;;;;;;;57.77;39.50;;;10.30;99.90;;;;;;5004103;28;20329;-63
2021/11/11 10:44:55;;;;;;;55.43;39.67;;;10.20;99.90;;;;;;5000190;28;20280;-63
2021/11/11 10:47:27;;;;;;;55.03;38.43;;;10.30;99.90;;;;;;5003213;28;20244;-63
2021/11/11 10:49:56;;;;;;;52.30;38.47;;;10.30;99.90;;;;;;5012631;28;20249;-63
2021/11/11 10:52:35;;;;;;;48.47;37.07;;;10.30;99.90;;;;;;5012358;28;20241;-63
2021/11/11 10:55:19;;;;;;;50.03;36.37;;;10.30;99.90;;;;;;5007150;28;20240;-63
2021/11/11 10:58:03;;;;;;;49.20;35.03;;;10.30;99.90;;;;;;5009522;28;20263;-63
2021/11/11 11:00:47;;;;;;;48.93;34.77;;;10.30;99.90;;;;;;5006885;28;20232;-63
2021/11/11 11:03:18;;;;;;;48.97;35.07;;;10.40;99.90;;;;;;5009574;28;20450;-63
2021/11/11 11:05:52;;;;;;;45.83;34.60;;;10.30;99.90;;;;;;5007277;28;20347;-63
2021/11/11 11:08:22;;;;;;;48.03;35.10;;;10.30;99.90;;;;;;5009902;28;20282;-63
2021/11/11 11:10:54;;;;;;;45.90;34.00;;;10.40;99.90;;;;;;5008646;28;20260;-63
2021/11/11 11:13:27;;;;;;;46.73;34.83;;;10.40;99.90;;;;;;5009665;28;20245;-63
2021/11/11 11:15:58;;;;;;;43.67;33.83;;;10.30;99.90;;;;;;5005086;28;20242;-63
2021/11/11 11:18:29;;;;;;;50.20;35.90;;;10.40;99.90;;;;;;5008999;28;20241;-63
2021/11/11 11:21:01;;;;;;;48.43;34.80;;;10.40;99.90;;;;;;5008528;28;20646;-63
2021/11/11 11:23:38;;;;;;;47.53;34.30;;;10.40;99.90;;;;;;5009119;28;21034;-63
2021/11/11 11:26:12;;;;;;;50.60;34.50;;;10.40;99.90;;;;;;5006059;28;20240;-63
2021/11/11 11:28:48;;;;;;;49.30;35.90;;;10.40;99.90;;;;;;5010109;28;20242;-63
2021/11/11 11:31:26;;;;;;;49.50;34.07;;;10.40;99.90;;;;;;5013293;28;20974;-63
2021/11/11 11:33:55;;;;;;;45.00;34.47;;;10.40;99.90;;;;;;5013519;28;20611;-63
2021/11/11 11:36:36;;;;;;;50.17;35.40;;;10.40;99.90;;;;;;5020551;28;20239;-63
2021/11/11 11:39:07;;;;;;;47.60;34.50;;;10.30;99.90;;;;;;5012225;28;20299;-63
2021/11/11 11:41:37;;;;;;;50.23;35.00;;;10.40;99.90;;;;;;5012464;28;20406;-63
2021/11/11 11:44:39;;;;;;;47.70;35.70;;;10.40;99.90;;;;;;4996737;28;20328;-63
2021/11/11 11:47:14;;;;;;;50.63;35.37;;;10.50;99.90;;;;;;4998467;28;20241;-63
2021/11/11 11:49:46;;;;;;;44.90;34.17;;;10.40;99.90;;;;;;4996948;28;20706;-63
2021/11/11 11:52:15;;;;;;;47.13;34.67;;;10.40;99.90;;;;;;5004238;28;20237;-63
2021/11/11 11:55:04;;;;;;;43.20;33.30;;;10.50;99.90;;;;;;4997005;28;20276;-63
2021/11/11 11:57:43;;;;;;;46.70;34.93;;;10.40;99.90;;;;;;4998256;28;20287;-63
2021/11/11 12:00:29;;;;;;;44.00;33.10;;;10.50;99.90;;;;;;5002977;28;20288;-63
2021/11/11 12:03:19;;;;;;;48.17;33.77;;;10.50;99.90;;;;;;4994425;28;20319;-63
2021/11/11 12:06:09;;;;;;;47.90;34.03;;;10.50;99.90;;;;;;5017181;28;20537;-63
2021/11/11 12:08:47;;;;;;;49.27;33.77;;;10.50;99.90;;;;;;4996274;28;20269;-63
2021/11/11 12:14:15;;;;;;;46.80;33.03;;;10.50;99.90;;;;;;4995994;28;20275;-63
2021/11/11 12:17:03;;;;;;;49.27;33.07;;;10.50;99.90;;;;;;4998267;28;20241;-63
2021/11/11 12:39:49;;;;;;;48.97;30.93;;;10.50;99.90;;;;;;4991626;28;20233;-63
2021/11/11 12:42:31;;;;;;;46.10;29.97;;;10.60;99.90;;;;;;4999633;28;20233;-63
2021/11/11 12:45:13;;;;;;;42.17;29.57;;;10.50;99.90;;;;;;4996257;28;20237;-63
2021/11/11 12:47:47;;;;;;;41.23;30.30;;;10.50;99.90;;;;;;4999574;28;20258;-63
2021/11/11 12:50:37;;;;;;;41.40;27.80;;;10.50;99.90;;;;;;4998566;28;20598;-63
2021/11/11 12:53:27;;;;;;;42.47;28.07;;;10.50;99.90;;;;;;4995250;28;20248;-63
2021/11/11 12:56:22;;;;;;;41.43;27.30;;;10.60;99.90;;;;;;5017901;28;21045;-63
2021/11/11 12:58:58;;;;;;;42.67;27.93;;;10.60;99.90;;;;;;5017263;28;20249;-63
2021/11/11 13:01:28;;;;;;;39.20;28.00;;;10.60;99.90;;;;;;5014729;28;20259;-63
2021/11/11 13:03:59;;;;;;;35.27;26.70;;;10.70;99.90;;;;;;5015902;28;20242;-63
2021/11/11 13:06:37;;;;;;;39.13;26.40;;;10.60;99.90;;;;;;5009698;28;20255;-63
2021/11/11 13:09:11;;;;;;;38.40;26.10;;;10.60;99.90;;;;;;5022148;28;20732;-63
2021/11/11 13:11:42;;;;;;;37.70;25.70;;;10.50;99.90;;;;;;5017897;28;20630;-63
2021/11/11 13:14:15;;;;;;;35.07;25.33;;;10.50;99.90;;;;;;5017121;28;20324;-63
2021/11/11 13:16:45;;;;;;;35.50;26.17;;;10.50;99.90;;;;;;5016513;28;20706;-63
2021/11/11 13:19:32;;;;;;;30.97;24.40;;;10.50;99.90;;;;;;5011805;28;20251;-63
2021/11/11 13:22:06;;;;;;;33.23;25.07;;;10.50;99.90;;;;;;5017949;28;20653;-63
2021/11/11 13:24:49;;;;;;;31.87;25.20;;;10.50;99.90;;;;;;5011310;28;20232;-63
2021/11/11 13:59:47;;;;;;;32.47;24.73;;;10.60;99.90;;;;;;5009541;28;20237;-63
2021/11/11 15:04:23;;;;;;;35.87;26.47;;;10.50;99.90;;;;;;4984265;28;20328;-62
2021/11/11 15:16:59;;;;;;;38.90;29.63;;;10.40;99.90;;;;;;5006980;28;20760;-63
2021/11/11 16:02:21;;;;;;;41.47;32.07;;;10.30;99.90;;;;;;4999569;28;20345;-63
2021/11/11 16:21:46;;;;;;;41.03;32.60;;;10.30;99.90;;;;;;5000417;28;20241;-63
2021/11/11 16:24:28;;;;;;;41.50;32.73;;;10.30;99.90;;;;;;5007620;28;20314;-62